Flight Track Log - Related Links

Times and Time Zones

All times are in EDT time to prevent confusion due to time zone crossing. See the ANA1713 flight status page for this flight to view local times or setup timezone preferences in your user account.

Time Position Orientation Groundspeed Altitude Reporting Facility
EDT Latitude Longitude Course Direction KTS MPH feet Rate Location/Type
Mon 09:59:15 PM 34.4529 135.2614 29° Northeast  Level Estimated
Mon 10:00:15 PM 34.5555 135.3309 29° Northeast  Level Estimated
Mon 10:01:15 PM 34.6579 135.4005 29° Northeast  Level Estimated
Mon 10:02:15 PM 34.7603 135.4703 29° Northeast  Level Estimated
Mon 10:03:15 PM 34.8627 135.5403 29° Northeast  Level Estimated
Mon 10:04:15 PM 34.9651 135.6104 29° Northeast  Level Estimated
Mon 10:05:15 PM 35.0674 135.6808 29° Northeast  Level Estimated
Mon 10:06:15 PM 35.1697 135.7513 29° Northeast  Level Estimated
Mon 10:07:15 PM 35.2719 135.8219 29° Northeast  Level Estimated
Mon 10:08:15 PM 35.3741 135.8928 30° Northeast  Level Estimated
Mon 10:09:15 PM 35.4762 135.9638 30° Northeast  Level Estimated
Mon 10:10:15 PM 35.5783 136.0350 30° Northeast  Level Estimated
Mon 10:11:15 PM 35.6804 136.1064 30° Northeast  Level Estimated
Mon 10:12:15 PM 35.7824 136.1780 30° Northeast  Level Estimated
Mon 10:13:15 PM 35.8844 136.2498 30° Northeast  Level Estimated
Mon 10:14:15 PM 35.9863 136.3217 30° Northeast  Level Estimated
Mon 10:15:15 PM 36.0882 136.3939 30° Northeast  Level Estimated
Mon 10:16:15 PM 36.1900 136.4662 30° Northeast  Level Estimated
Mon 10:17:15 PM 36.2918 136.5387 30° Northeast  Level Estimated
Mon 10:18:15 PM 36.3936 136.6114 30° Northeast  Level Estimated
Mon 10:19:15 PM 36.4953 136.6843 30° Northeast  Level Estimated
Mon 10:20:15 PM 36.5970 136.7574 30° Northeast  Level Estimated
Mon 10:21:15 PM 36.6986 136.8307 30° Northeast  Level Estimated
Mon 10:22:15 PM 36.8002 136.9041 30° Northeast  Level Estimated
Mon 10:23:15 PM 36.9017 136.9778 30° Northeast  Level Estimated
Mon 10:24:15 PM 37.0032 137.0516 30° Northeast  Level Estimated
Mon 10:25:15 PM 37.1046 137.1257 30° Northeast  Level Estimated
Mon 10:26:15 PM 37.2060 137.1999 30° Northeast  Level Estimated
Mon 10:27:15 PM 37.3074 137.2744 30° Northeast  Level Estimated
Mon 10:28:15 PM 37.4087 137.3490 30° Northeast  Level Estimated
Mon 10:29:15 PM 37.5099 137.4239 30° Northeast  Level Estimated
Mon 10:30:15 PM 37.6111 137.4990 30° Northeast  Level Estimated
Mon 10:31:15 PM 37.7123 137.5742 31° Northeast  Level Estimated
Mon 10:32:15 PM 37.8134 137.6497 31° Northeast  Level Estimated
Mon 10:33:15 PM 37.9145 137.7254 31° Northeast  Level Estimated
Mon 10:34:15 PM 38.0155 137.8013 31° Northeast  Level Estimated
Mon 10:35:15 PM 38.1164 137.8774 31° Northeast  Level Estimated
Mon 10:36:15 PM 38.2173 137.9537 31° Northeast  Level Estimated
Mon 10:37:15 PM 38.3182 138.0302 31° Northeast  Level Estimated
Mon 10:38:15 PM 38.4190 138.1069 31° Northeast  Level Estimated
Mon 10:39:15 PM 38.5198 138.1839 31° Northeast  Level Estimated
Mon 10:40:15 PM 38.6205 138.2611 31° Northeast  Level Estimated
Mon 10:41:15 PM 38.7212 138.3384 31° Northeast  Level Estimated
Mon 10:42:15 PM 38.8218 138.4160 31° Northeast  Level Estimated
Mon 10:43:15 PM 38.9224 138.4939 31° Northeast  Level Estimated
Mon 10:44:15 PM 39.0229 138.5719 31° Northeast  Level Estimated
Mon 10:45:15 PM 39.1233 138.6502 31° Northeast  Level Estimated
Mon 10:46:15 PM 39.2237 138.7287 31° Northeast  Level Estimated
Mon 10:47:15 PM 39.3241 138.8074 31° Northeast  Level Estimated
Mon 10:48:15 PM 39.4244 138.8863 31° Northeast  Level Estimated
Mon 10:49:15 PM 39.5246 138.9655 31° Northeast  Level Estimated
Mon 10:50:15 PM 39.6248 139.0448 31° Northeast  Level Estimated
Mon 10:51:15 PM 39.7250 139.1245 31° Northeast  Level Estimated
Mon 10:52:15 PM 39.8251 139.2043 32° Northeast  Level Estimated
Mon 10:53:15 PM 39.9251 139.2844 32° Northeast  Level Estimated
Mon 10:54:15 PM 40.0251 139.3647 32° Northeast  Level Estimated
Mon 10:55:15 PM 40.1250 139.4453 32° Northeast  Level Estimated
Mon 10:56:15 PM 40.2248 139.5261 32° Northeast  Level Estimated
Mon 10:57:15 PM 40.3246 139.6071 32° Northeast  Level Estimated
Mon 10:58:15 PM 40.4244 139.6884 32° Northeast  Level Estimated
Mon 10:59:15 PM 40.5241 139.7699 32° Northeast  Level Estimated
Mon 11:00:15 PM 40.6237 139.8516 32° Northeast  Level Estimated
Mon 11:01:15 PM 40.7233 139.9336 32° Northeast  Level Estimated
Mon 11:02:15 PM 40.8228 140.0159 32° Northeast  Level Estimated
Mon 11:03:15 PM 40.9223 140.0984 32° Northeast  Level Estimated
Mon 11:04:15 PM 41.0217 140.1811 32° Northeast  Level Estimated
Mon 11:05:15 PM 41.1210 140.2641 32° Northeast  Level Estimated
Mon 11:06:15 PM 41.2203 140.3473 32° Northeast  Level Estimated
Mon 11:07:15 PM 41.3195 140.4308 32° Northeast  Level Estimated
Mon 11:08:15 PM 41.4187 140.5146 32° Northeast  Level Estimated
Mon 11:09:15 PM 41.5178 140.5986 32° Northeast  Level Estimated
Mon 11:10:15 PM 41.6168 140.6829 33° Northeast  Level Estimated
Mon 11:11:15 PM 41.7158 140.7674 33° Northeast  Level Estimated
Mon 11:12:15 PM 41.8147 140.8522 33° Northeast  Level Estimated
Mon 11:13:15 PM 41.9136 140.9372 33° Northeast  Level Estimated
Mon 11:14:15 PM 42.0123 141.0225 33° Northeast  Level Estimated
Mon 11:15:15 PM 42.1111 141.1081 33° Northeast  Level Estimated
Mon 11:16:15 PM 42.2097 141.1940 33° Northeast  Level Estimated
Mon 11:17:15 PM 42.3083 141.2801 33° Northeast  Level Estimated
Mon 11:18:15 PM 42.4069 141.3665 33° Northeast  Level Estimated
Mon 11:19:15 PM 42.5053 141.4531 33° Northeast  Level Estimated
Mon 11:20:15 PM 42.6037 141.5400 33° Northeast  Level Estimated
Mon 11:21:15 PM 42.7021 141.6272 33° Northeast  Level Estimated
Mon 11:22:15 PM 42.8004 141.7147 213° Southwest  Level Estimated
Mon 11:23:15 PM 42.7021 141.6272 33° Northeast  Level Estimated
Mon 11:24:15 PM 42.8004 141.7147 213° Southwest  Level Estimated
Mon 11:25:15 PM 42.7021 141.6272 33° Northeast  Level Estimated
Mon 11:26:15 PM 42.8004 141.7147 213° Southwest  Level Estimated
Mon 11:27:15 PM 42.7021 141.6272 33° Northeast  Level Estimated
Mon 11:28:15 PM 42.8004 141.7147 213° Southwest  Level Estimated
Mon 11:29:15 PM 42.7021 141.6272 33° Northeast  Level Estimated
Mon 11:30:15 PM 42.8004 141.7147 213° Southwest  Level Estimated
Mon 11:31:15 PM 42.7021 141.6272 33° Northeast  Level Estimated
Mon 11:32:15 PM 42.8004 141.7147 213° Southwest  Level Estimated
Mon 11:33:15 PM 42.7021 141.6272 33° Northeast  Level Estimated
Mon 11:34:15 PM 42.8004 141.7147 213° Southwest  Level Estimated
Mon 11:35:15 PM 42.7021 141.6272 33° Northeast  Level Estimated
Mon 11:36:15 PM 42.8004 141.7147 213° Southwest  Level Estimated
Mon 11:37:15 PM 42.7021 141.6272 213° Southwest  Level Estimated

Login

Don't have an account? Register now (free) for customized features, flight alerts, and more!